Impacts METAR Board INFO
IDs:

KIAH - Houston/Bush Intl, TX, US

Updated at: 0017 UTC 22 Jan 2018
Potential Impact None Slight Moderate High
Time21/12Z 21/13Z 21/14Z 21/15Z 21/16Z 21/17Z 21/18Z 21/19Z 21/20Z 21/21Z 21/22Z 21/23Z 22/00Z
VIS9 9 8 10 10 10 10 10 10 10 7 7 3
CIG9 9 9 9 11 17 50 50 50 35 22 20 7
CoverOVCBKNOVCOVCOVCBKNBKNBKNBKNOVCOVCOVCOVC
FltCatIFRIFRIFRIFRMVFRMVFRVFRVFRVFRVFRMVFRMVFRIFR
WX---------------------RA--BR
WDir170160150160170160170160150180170130150
WSpd10 12 9 10 7 12 13 20 21 16 11 10 6
WGst-- -- -- -- -- -- 22 25 28 23 16 -- --
Raw hourly METARs
KIAH 211153Z 17010KT 9SM OVC009 19/18 A3000 RMK AO2 SLP158 70002 T01940183 10194 20194 55004
KIAH 211253Z 16012KT 9SM BKN009 BKN050 19/18 A2999 RMK AO2 SLP155 T01890178
KIAH 211353Z 15009KT 8SM BKN009 OVC016 19/18 A2999 RMK AO2 SLP155 T01890178
KIAH 211453Z 16010KT 10SM OVC009 19/18 A3001 RMK AO2 SLP161 T01940183 53004
KIAH 211553Z 17007KT 10SM BKN011 OVC020 21/18 A3002 RMK AO2 SLP166 T02060183
KIAH 211653Z 16012KT 10SM BKN017 BKN025 BKN032 21/18 A3001 RMK AO2 SLP163 T02110183
KIAH 211753Z 17013G22KT 10SM FEW021 SCT031 BKN050 BKN250 23/18 A2998 RMK AO2 SLP152 T02330183 10233 20183 58009
KIAH 211853Z 16020G25KT 10SM SCT025 SCT038 BKN050 BKN250 23/18 A2993 RMK AO2 PK WND 16026/1825 SLP136 T02330178
KIAH 211953Z 15021G28KT 10SM SCT025 SCT037 BKN050 BKN250 23/18 A2991 RMK AO2 PK WND 15028/1953 SLP126 T02330178
KIAH 212053Z 18016G23KT 10SM SCT022 BKN035 OVC250 23/18 A2990 RMK AO2 PK WND 15030/1954 SLP124 T02280178 56029
KIAH 212153Z 17011G16KT 7SM -RA BKN022 BKN055 OVC250 21/19 A2990 RMK AO2 RAB30 SLP125 P0000 T02110189
KIAH 212253Z 13010KT 7SM FEW013 BKN020 OVC050 19/19 A2990 RMK AO2 RAE06B24E39 SLP125 P0000 T01940189
KIAH 212353Z 15006KT 3SM BR BKN007 BKN014 OVC060 19/18 A2990 RMK AO2 RAB05E21 SLP124 BKN007 V SCT P0000 60000 T01890183 10239 20189 50001